Station Historical Data
Daily Summary for May 28, 2017 Units:  Both    English   Metric
« Previous Day
Next Day »
Daily Weekly Monthly Yearly Custom
  High: Low: Average:
Temperature: 79.9 °F /  26.6 °C 50.4 °F /  10.2 °C 65.7 °F /  18.7 °C
Dew Point: 64.3 °F /  17.9 °C 48.5 °F /  9.2 °C 57.2 °F /  14 °C
Humidity: 94% 52% 76%
Wind Speed: 8.0mph /  12.9km/h - 2mph /  3.2km/h
Wind Gust: 13.0mph /  20.9km/h - -
Wind- - ESE
Pressure: 29.94 in /  1013.8 hPa 29.68 in /  1005 hPa -
Precipitation: 0.00 in /  0 mm    
Historical Graphs
 
 
Tabular Data for May 28, 2017
Time Temperature Dew Point Pressure Wind Wind Speed Wind Gust Humidity Rainfall Rate (Hourly)
00:04 54.5 °F /  12.5 °C 51.3 °F /  10.7 °C 29.94in /  1013.8hPa Calm     89% 0.00in /  0mm
00:09 54.6 °F /  12.6 °C 51.4 °F /  10.8 °C 29.91in /  1012.8hPa Calm     89% 0.00in /  0mm
00:14 54.9 °F /  12.7 °C 52.0 °F /  11.1 °C 29.90in /  1012.4hPa Calm     90% 0.00in /  0mm
00:19 54.9 °F /  12.7 °C 52.0 °F /  11.1 °C 29.91in /  1012.8hPa Calm     90% 0.00in /  0mm
00:24 54.6 °F /  12.6 °C 51.7 °F /  10.9 °C 29.90in /  1012.4hPa Calm     90% 0.00in /  0mm
00:29 54.4 °F /  12.4 °C 51.5 °F /  10.8 °C 29.90in /  1012.4hPa Calm     90% 0.00in /  0mm
00:34 54.1 °F /  12.3 °C 51.2 °F /  10.7 °C 29.90in /  1012.4hPa Calm     90% 0.00in /  0mm
00:39 53.8 °F /  12.1 °C 50.9 °F /  10.5 °C 29.90in /  1012.4hPa Calm     90% 0.00in /  0mm
00:44 53.5 °F /  11.9 °C 50.6 °F /  10.3 °C 29.89in /  1012.1hPa Calm     90% 0.00in /  0mm
00:49 53.4 °F /  11.9 °C 50.5 °F /  10.3 °C 29.89in /  1012.1hPa Calm     90% 0.00in /  0mm
00:54 53.3 °F /  11.8 °C 50.4 °F /  10.2 °C 29.90in /  1012.4hPa Calm     90% 0.00in /  0mm
00:59 53.2 °F /  11.8 °C 50.6 °F /  10.3 °C 29.90in /  1012.4hPa Calm     91% 0.00in /  0mm
01:04 53.0 °F /  11.7 °C 50.4 °F /  10.2 °C 29.89in /  1012.1hPa Calm     91% 0.00in /  0mm
01:09 53.0 °F /  11.7 °C 50.4 °F /  10.2 °C 29.88in /  1011.7hPa Calm     91% 0.00in /  0mm
01:14 53.5 °F /  11.9 °C 50.9 °F /  10.5 °C 29.89in /  1012.1hPa Calm     91% 0.00in /  0mm
01:19 53.4 °F /  11.9 °C 50.8 °F /  10.4 °C 29.88in /  1011.7hPa Calm     91% 0.00in /  0mm
01:24 53.5 °F /  11.9 °C 51.2 °F /  10.7 °C 29.87in /  1011.4hPa Calm     92% 0.00in /  0mm
01:29 53.6 °F /  12 °C 51.3 °F /  10.7 °C 29.86in /  1011.1hPa Calm     92% 0.00in /  0mm
01:34 53.4 °F /  11.9 °C 51.1 °F /  10.6 °C 29.86in /  1011.1hPa Calm     92% 0.00in /  0mm
01:39 53.2 °F /  11.8 °C 50.9 °F /  10.5 °C 29.86in /  1011.1hPa Calm     92% 0.00in /  0mm
01:44 53.0 °F /  11.7 °C 50.7 °F /  10.4 °C 29.86in /  1011.1hPa Calm     92% 0.00in /  0mm
01:49 52.6 °F /  11.4 °C 50.3 °F /  10.2 °C 29.88in /  1011.7hPa Calm     92% 0.00in /  0mm
01:54 52.5 °F /  11.4 °C 50.2 °F /  10.1 °C 29.89in /  1012.1hPa Calm     92% 0.00in /  0mm
01:59 52.6 °F /  11.4 °C 50.3 °F /  10.2 °C 29.90in /  1012.4hPa Calm     92% 0.00in /  0mm
02:04 52.4 °F /  11.3 °C 50.1 °F /  10.1 °C 29.89in /  1012.1hPa Calm     92% 0.00in /  0mm
02:09 52.1 °F /  11.2 °C 49.8 °F /  9.9 °C 29.89in /  1012.1hPa Calm     92% 0.00in /  0mm
02:14 52.4 °F /  11.3 °C 50.1 °F /  10.1 °C 29.89in /  1012.1hPa Calm     92% 0.00in /  0mm
02:19 52.2 °F /  11.2 °C 49.9 °F /  9.9 °C 29.89in /  1012.1hPa Calm     92% 0.00in /  0mm
02:24 52.4 °F /  11.3 °C 50.4 °F /  10.2 °C 29.89in /  1012.1hPa Calm     93% 0.00in /  0mm
02:29 52.3 °F /  11.3 °C 50.3 °F /  10.2 °C 29.88in /  1011.7hPa Calm     93% 0.00in /  0mm
02:34 52.2 °F /  11.2 °C 50.2 °F /  10.1 °C 29.88in /  1011.7hPa Calm     93% 0.00in /  0mm
02:39 52.0 °F /  11.1 °C 49.7 °F /  9.8 °C 29.88in /  1011.7hPa Calm     92% 0.00in /  0mm
02:44 51.8 °F /  11 °C 49.8 °F /  9.9 °C 29.88in /  1011.7hPa Calm     93% 0.00in /  0mm
02:49 51.7 °F /  10.9 °C 49.7 °F /  9.8 °C 29.89in /  1012.1hPa Calm     93% 0.00in /  0mm
02:54 51.8 °F /  11 °C 49.8 °F /  9.9 °C 29.89in /  1012.1hPa Calm     93% 0.00in /  0mm
02:59 51.5 °F /  10.8 °C 49.5 °F /  9.7 °C 29.88in /  1011.7hPa Calm     93% 0.00in /  0mm
03:04 51.4 °F /  10.8 °C 49.4 °F /  9.7 °C 29.88in /  1011.7hPa Calm     93% 0.00in /  0mm
03:09 51.6 °F /  10.9 °C 49.6 °F /  9.8 °C 29.88in /  1011.7hPa Calm     93% 0.00in /  0mm
03:14 51.6 °F /  10.9 °C 49.6 °F /  9.8 °C 29.87in /  1011.4hPa Calm     93% 0.00in /  0mm
03:19 51.7 °F /  10.9 °C 49.7 °F /  9.8 °C 29.87in /  1011.4hPa Calm     93% 0.00in /  0mm
03:24 51.8 °F /  11 °C 49.8 °F /  9.9 °C 29.87in /  1011.4hPa Calm     93% 0.00in /  0mm
03:29 51.4 °F /  10.8 °C 49.4 °F /  9.7 °C 29.88in /  1011.7hPa Calm     93% 0.00in /  0mm
03:34 51.3 °F /  10.7 °C 49.3 °F /  9.6 °C 29.87in /  1011.4hPa Calm     93% 0.00in /  0mm
03:39 51.5 °F /  10.8 °C 49.5 °F /  9.7 °C 29.87in /  1011.4hPa Calm     93% 0.00in /  0mm
03:44 51.5 °F /  10.8 °C 49.5 °F /  9.7 °C 29.86in /  1011.1hPa Calm     93% 0.00in /  0mm
03:49 51.7 °F /  10.9 °C 49.7 °F /  9.8 °C 29.86in /  1011.1hPa Calm     93% 0.00in /  0mm
03:54 51.8 °F /  11 °C 50.1 °F /  10.1 °C 29.87in /  1011.4hPa Calm     94% 0.00in /  0mm
03:59 51.7 °F /  10.9 °C 49.7 °F /  9.8 °C 29.87in /  1011.4hPa Calm     93% 0.00in /  0mm
04:04 51.6 °F /  10.9 °C 49.6 °F /  9.8 °C 29.87in /  1011.4hPa Calm     93% 0.00in /  0mm
04:09 51.6 °F /  10.9 °C 49.6 °F /  9.8 °C 29.87in /  1011.4hPa Calm     93% 0.00in /  0mm
04:14 51.7 °F /  10.9 °C 49.7 °F /  9.8 °C 29.88in /  1011.7hPa Calm     93% 0.00in /  0mm
04:19 51.5 °F /  10.8 °C 49.5 °F /  9.7 °C 29.88in /  1011.7hPa Calm     93% 0.00in /  0mm
04:24 51.3 °F /  10.7 °C 49.3 °F /  9.6 °C 29.88in /  1011.7hPa Calm     93% 0.00in /  0mm
04:29 51.2 °F /  10.7 °C 49.2 °F /  9.6 °C 29.88in /  1011.7hPa Calm     93% 0.00in /  0mm
04:34 51.0 °F /  10.6 °C 49.0 °F /  9.4 °C 29.88in /  1011.7hPa Calm     93% 0.00in /  0mm
04:39 50.9 °F /  10.5 °C 48.9 °F /  9.4 °C 29.87in /  1011.4hPa Calm     93% 0.00in /  0mm
04:44 50.7 °F /  10.4 °C 48.7 °F /  9.3 °C 29.87in /  1011.4hPa Calm     93% 0.00in /  0mm
04:49 50.8 °F /  10.4 °C 49.1 °F /  9.5 °C 29.87in /  1011.4hPa Calm     94% 0.00in /  0mm
04:54 50.6 °F /  10.3 °C 48.7 °F /  9.3 °C 29.88in /  1011.7hPa Calm     93% 0.00in /  0mm
04:59 50.6 °F /  10.3 °C 48.9 °F /  9.4 °C 29.88in /  1011.7hPa Calm     94% 0.00in /  0mm
05:04 50.7 °F /  10.4 °C 49.0 °F /  9.4 °C 29.88in /  1011.7hPa Calm     94% 0.00in /  0mm
05:09 50.6 °F /  10.3 °C 48.7 °F /  9.3 °C 29.87in /  1011.4hPa Calm     93% 0.00in /  0mm
05:14 50.5 °F /  10.3 °C 48.6 °F /  9.2 °C 29.88in /  1011.7hPa Calm     93% 0.00in /  0mm
05:19 50.5 °F /  10.3 °C 48.6 °F /  9.2 °C 29.87in /  1011.4hPa Calm     93% 0.00in /  0mm
05:24 50.4 °F /  10.2 °C 48.5 °F /  9.2 °C 29.87in /  1011.4hPa Calm     93% 0.00in /  0mm
05:29 50.5 °F /  10.3 °C 48.8 °F /  9.3 °C 29.88in /  1011.7hPa Calm     94% 0.00in /  0mm
05:34 50.5 °F /  10.3 °C 48.8 °F /  9.3 °C 29.88in /  1011.7hPa Calm     94% 0.00in /  0mm
05:39 50.6 °F /  10.3 °C 48.9 °F /  9.4 °C 29.88in /  1011.7hPa Calm     94% 0.00in /  0mm
05:44 50.7 °F /  10.4 °C 49.0 °F /  9.4 °C 29.87in /  1011.4hPa Calm     94% 0.00in /  0mm
05:49 50.7 °F /  10.4 °C 49.0 °F /  9.4 °C 29.87in /  1011.4hPa Calm     94% 0.00in /  0mm
05:54 50.7 °F /  10.4 °C 49.0 °F /  9.4 °C 29.87in /  1011.4hPa Calm     94% 0.00in /  0mm
05:59 50.9 °F /  10.5 °C 49.2 °F /  9.6 °C 29.87in /  1011.4hPa Calm     94% 0.00in /  0mm
06:04 51.1 °F /  10.6 °C 49.4 °F /  9.7 °C 29.87in /  1011.4hPa Calm     94% 0.00in /  0mm
06:09 51.2 °F /  10.7 °C 49.5 °F /  9.7 °C 29.87in /  1011.4hPa Calm     94% 0.00in /  0mm
06:14 51.3 °F /  10.7 °C 49.6 °F /  9.8 °C 29.87in /  1011.4hPa Calm     94% 0.00in /  0mm
06:19 51.4 °F /  10.8 °C 49.7 °F /  9.8 °C 29.87in /  1011.4hPa Calm     94% 0.00in /  0mm
06:24 51.6 °F /  10.9 °C 49.9 °F /  9.9 °C 29.87in /  1011.4hPa Calm     94% 0.00in /  0mm
06:29 51.9 °F /  11.1 °C 50.2 °F /  10.1 °C 29.87in /  1011.4hPa Calm     94% 0.00in /  0mm
06:34 52.1 °F /  11.2 °C 50.4 °F /  10.2 °C 29.87in /  1011.4hPa Calm     94% 0.00in /  0mm
06:39 52.2 °F /  11.2 °C 50.2 °F /  10.1 °C 29.87in /  1011.4hPa Calm     93% 0.00in /  0mm
06:44 52.4 °F /  11.3 °C 50.4 °F /  10.2 °C 29.87in /  1011.4hPa Calm     93% 0.00in /  0mm
06:49 52.7 °F /  11.5 °C 50.7 °F /  10.4 °C 29.87in /  1011.4hPa Calm     93% 0.00in /  0mm
06:54 53.0 °F /  11.7 °C 51.0 °F /  10.6 °C 29.86in /  1011.1hPa Calm   3.0mph /  4.8km/h 93% 0.00in /  0mm
06:59 53.3 °F /  11.8 °C 51.3 °F /  10.7 °C 29.86in /  1011.1hPa East 1.0mph /  1.6km/h 3.0mph /  4.8km/h 93% 0.00in /  0mm
07:04 53.4 °F /  11.9 °C 51.1 °F /  10.6 °C 29.86in /  1011.1hPa ENE 1.0mph /  1.6km/h 3.0mph /  4.8km/h 92% 0.00in /  0mm
07:09 53.6 °F /  12 °C 51.3 °F /  10.7 °C 29.85in /  1010.7hPa ENE 1.0mph /  1.6km/h 4.0mph /  6.4km/h 92% 0.00in /  0mm
07:14 53.8 °F /  12.1 °C 51.5 °F /  10.8 °C 29.85in /  1010.7hPa ENE 1.0mph /  1.6km/h 4.0mph /  6.4km/h 92% 0.00in /  0mm
07:19 53.9 °F /  12.2 °C 51.6 °F /  10.9 °C 29.85in /  1010.7hPa ENE 2.0mph /  3.2km/h 5.0mph /  8km/h 92% 0.00in /  0mm
07:24 54.4 °F /  12.4 °C 51.8 °F /  11 °C 29.84in /  1010.4hPa NE 1.0mph /  1.6km/h 4.0mph /  6.4km/h 91% 0.00in /  0mm
07:29 54.7 °F /  12.6 °C 52.1 °F /  11.2 °C 29.84in /  1010.4hPa Calm   6.0mph /  9.7km/h 91% 0.00in /  0mm
07:34 55.0 °F /  12.8 °C 52.1 °F /  11.2 °C 29.84in /  1010.4hPa ENE 2.0mph /  3.2km/h 4.0mph /  6.4km/h 90% 0.00in /  0mm
07:39 55.3 °F /  12.9 °C 52.4 °F /  11.3 °C 29.84in /  1010.4hPa East 2.0mph /  3.2km/h 5.0mph /  8km/h 90% 0.00in /  0mm
07:44 55.7 °F /  13.2 °C 52.5 °F /  11.4 °C 29.84in /  1010.4hPa ENE 3.0mph /  4.8km/h 5.0mph /  8km/h 89% 0.00in /  0mm
07:49 56.3 °F /  13.5 °C 52.8 °F /  11.6 °C 29.84in /  1010.4hPa ENE 2.0mph /  3.2km/h 5.0mph /  8km/h 88% 0.00in /  0mm
07:54 57.1 °F /  13.9 °C 53.0 °F /  11.7 °C 29.83in /  1010hPa NE 3.0mph /  4.8km/h 6.0mph /  9.7km/h 86% 0.00in /  0mm
07:59 57.6 °F /  14.2 °C 53.1 °F /  11.7 °C 29.83in /  1010hPa NE 3.0mph /  4.8km/h 7.0mph /  11.3km/h 85% 0.00in /  0mm
08:04 58.4 °F /  14.7 °C 53.6 °F /  12 °C 29.83in /  1010hPa East 5.0mph /  8km/h 7.0mph /  11.3km/h 84% 0.00in /  0mm
08:09 59.2 °F /  15.1 °C 54.0 °F /  12.2 °C 29.84in /  1010.4hPa NE 2.0mph /  3.2km/h 5.0mph /  8km/h 83% 0.00in /  0mm
08:19 60.3 °F /  15.7 °C 54.1 °F /  12.3 °C 29.84in /  1010.4hPa East 2.0mph /  3.2km/h 5.0mph /  8km/h 80% 0.00in /  0mm
08:24 61.0 °F /  16.1 °C 54.4 °F /  12.4 °C 29.83in /  1010hPa East 2.0mph /  3.2km/h 6.0mph /  9.7km/h 79% 0.00in /  0mm
08:29 61.4 °F /  16.3 °C 54.5 °F /  12.5 °C 29.83in /  1010hPa ENE 3.0mph /  4.8km/h 6.0mph /  9.7km/h 78% 0.00in /  0mm
08:34 61.7 °F /  16.5 °C 54.4 °F /  12.4 °C 29.83in /  1010hPa NE 4.0mph /  6.4km/h 6.0mph /  9.7km/h 77% 0.00in /  0mm
08:39 62.6 °F /  17 °C 55.6 °F /  13.1 °C 29.83in /  1010hPa NE 4.0mph /  6.4km/h 6.0mph /  9.7km/h 78% 0.00in /  0mm
08:44 62.8 °F /  17.1 °C 55.1 °F /  12.8 °C 29.83in /  1010hPa NE 4.0mph /  6.4km/h 6.0mph /  9.7km/h 76% 0.00in /  0mm
08:49 63.4 °F /  17.4 °C 55.7 °F /  13.2 °C 29.83in /  1010hPa NE 3.0mph /  4.8km/h 6.0mph /  9.7km/h 76% 0.00in /  0mm
08:54 63.8 °F /  17.7 °C 55.7 °F /  13.2 °C 29.83in /  1010hPa ENE 2.0mph /  3.2km/h 7.0mph /  11.3km/h 75% 0.00in /  0mm
08:59 64.2 °F /  17.9 °C 56.5 °F /  13.6 °C 29.83in /  1010hPa ENE 5.0mph /  8km/h 7.0mph /  11.3km/h 76% 0.00in /  0mm
09:04 65.5 °F /  18.6 °C 57.4 °F /  14.1 °C 29.83in /  1010hPa ENE 1.0mph /  1.6km/h 5.0mph /  8km/h 75% 0.00in /  0mm
09:09 65.7 °F /  18.7 °C 56.8 °F /  13.8 °C 29.83in /  1010hPa ENE 3.0mph /  4.8km/h 5.0mph /  8km/h 73% 0.00in /  0mm
09:14 66.3 °F /  19.1 °C 57.0 °F /  13.9 °C 29.83in /  1010hPa East 5.0mph /  8km/h 7.0mph /  11.3km/h 72% 0.00in /  0mm
09:19 66.6 °F /  19.2 °C 57.3 °F /  14.1 °C 29.83in /  1010hPa ENE 3.0mph /  4.8km/h 7.0mph /  11.3km/h 72% 0.00in /  0mm
09:24 66.8 °F /  19.3 °C 57.1 °F /  13.9 °C 29.83in /  1010hPa East 3.0mph /  4.8km/h 7.0mph /  11.3km/h 71% 0.00in /  0mm
09:29 67.6 °F /  19.8 °C 57.9 °F /  14.4 °C 29.82in /  1009.7hPa ESE 2.0mph /  3.2km/h 6.0mph /  9.7km/h 71% 0.00in /  0mm
09:34 67.2 °F /  19.6 °C 57.5 °F /  14.2 °C 29.82in /  1009.7hPa East 3.0mph /  4.8km/h 7.0mph /  11.3km/h 71% 0.00in /  0mm
09:39 67.6 °F /  19.8 °C 58.2 °F /  14.6 °C 29.82in /  1009.7hPa ENE 3.0mph /  4.8km/h 7.0mph /  11.3km/h 72% 0.00in /  0mm
09:44 67.4 °F /  19.7 °C 57.7 °F /  14.3 °C 29.82in /  1009.7hPa ENE 3.0mph /  4.8km/h 8.0mph /  12.9km/h 71% 0.00in /  0mm
09:49 67.5 °F /  19.7 °C 57.8 °F /  14.3 °C 29.82in /  1009.7hPa ESE 3.0mph /  4.8km/h 8.0mph /  12.9km/h 71% 0.00in /  0mm
09:54 68.2 °F /  20.1 °C 59.2 °F /  15.1 °C 29.82in /  1009.7hPa ENE 4.0mph /  6.4km/h 4.0mph /  6.4km/h 73% 0.00in /  0mm
09:59 68.3 °F /  20.2 °C 58.5 °F /  14.7 °C 29.81in /  1009.4hPa NE 5.0mph /  8km/h 7.0mph /  11.3km/h 71% 0.00in /  0mm
10:09 69.1 °F /  20.6 °C 60.1 °F /  15.6 °C 29.81in /  1009.4hPa Calm   7.0mph /  11.3km/h 73% 0.00in /  0mm
10:14 69.5 °F /  20.8 °C 59.3 °F /  15.2 °C 29.81in /  1009.4hPa ESE 1.0mph /  1.6km/h 7.0mph /  11.3km/h 70% 0.00in /  0mm
10:19 68.6 °F /  20.3 °C 58.4 °F /  14.7 °C 29.80in /  1009hPa East 2.0mph /  3.2km/h 7.0mph /  11.3km/h 70% 0.00in /  0mm
10:24 68.4 °F /  20.2 °C 58.2 °F /  14.6 °C 29.80in /  1009hPa East 3.0mph /  4.8km/h 7.0mph /  11.3km/h 70% 0.00in /  0mm
10:29 69.3 °F /  20.7 °C 58.7 °F /  14.8 °C 29.80in /  1009hPa ESE 4.0mph /  6.4km/h 7.0mph /  11.3km/h 69% 0.00in /  0mm
10:34 69.4 °F /  20.8 °C 58.8 °F /  14.9 °C 29.80in /  1009hPa ENE 2.0mph /  3.2km/h 5.0mph /  8km/h 69% 0.00in /  0mm
10:39 70.2 °F /  21.2 °C 59.1 °F /  15.1 °C 29.80in /  1009hPa East 1.0mph /  1.6km/h 7.0mph /  11.3km/h 68% 0.00in /  0mm
10:44 70.9 °F /  21.6 °C 59.8 °F /  15.4 °C 29.80in /  1009hPa ENE 5.0mph /  8km/h 7.0mph /  11.3km/h 68% 0.00in /  0mm
10:49 70.7 °F /  21.5 °C 59.2 °F /  15.1 °C 29.81in /  1009.4hPa NE 1.0mph /  1.6km/h 7.0mph /  11.3km/h 67% 0.00in /  0mm
10:54 71.0 °F /  21.7 °C 59.9 °F /  15.5 °C 29.81in /  1009.4hPa ENE 2.0mph /  3.2km/h 7.0mph /  11.3km/h 68% 0.00in /  0mm
10:59 70.5 °F /  21.4 °C 59.4 °F /  15.2 °C 29.81in /  1009.4hPa ENE 2.0mph /  3.2km/h 6.0mph /  9.7km/h 68% 0.00in /  0mm
11:04 70.3 °F /  21.3 °C 60.1 °F /  15.6 °C 29.82in /  1009.7hPa SE 2.0mph /  3.2km/h 3.0mph /  4.8km/h 70% 0.00in /  0mm
11:09 70.2 °F /  21.2 °C 59.1 °F /  15.1 °C 29.81in /  1009.4hPa East 2.0mph /  3.2km/h 6.0mph /  9.7km/h 68% 0.00in /  0mm
11:14 70.7 °F /  21.5 °C 60.0 °F /  15.6 °C 29.81in /  1009.4hPa ENE 3.0mph /  4.8km/h 6.0mph /  9.7km/h 69% 0.00in /  0mm
11:19 70.6 °F /  21.4 °C 59.1 °F /  15.1 °C 29.82in /  1009.7hPa ENE 2.0mph /  3.2km/h 6.0mph /  9.7km/h 67% 0.00in /  0mm
11:24 71.3 °F /  21.8 °C 59.8 °F /  15.4 °C 29.82in /  1009.7hPa WSW 1.0mph /  1.6km/h 2.0mph /  3.2km/h 67% 0.00in /  0mm
11:29 71.3 °F /  21.8 °C 60.2 °F /  15.7 °C 29.81in /  1009.4hPa Calm   2.0mph /  3.2km/h 68% 0.00in /  0mm
11:34 71.8 °F /  22.1 °C 59.8 °F /  15.4 °C 29.81in /  1009.4hPa NNW 2.0mph /  3.2km/h 4.0mph /  6.4km/h 66% 0.00in /  0mm
11:39 72.2 °F /  22.3 °C 60.6 °F /  15.9 °C 29.82in /  1009.7hPa West 2.0mph /  3.2km/h 3.0mph /  4.8km/h 67% 0.00in /  0mm
11:44 72.8 °F /  22.7 °C 59.9 °F /  15.5 °C 29.82in /  1009.7hPa WSW 1.0mph /  1.6km/h 4.0mph /  6.4km/h 64% 0.00in /  0mm
11:49 73.7 °F /  23.2 °C 59.4 °F /  15.2 °C 29.82in /  1009.7hPa WSW 2.0mph /  3.2km/h 5.0mph /  8km/h 61% 0.00in /  0mm
11:54 74.3 °F /  23.5 °C 60.0 °F /  15.6 °C 29.81in /  1009.4hPa SSW 2.0mph /  3.2km/h 6.0mph /  9.7km/h 61% 0.00in /  0mm
11:59 73.3 °F /  22.9 °C 59.0 °F /  15 °C 29.81in /  1009.4hPa SSW 3.0mph /  4.8km/h 7.0mph /  11.3km/h 61% 0.00in /  0mm
12:04 73.5 °F /  23.1 °C 61.0 °F /  16.1 °C 29.81in /  1009.4hPa SSW 3.0mph /  4.8km/h 7.0mph /  11.3km/h 65% 0.00in /  0mm
12:09 73.6 °F /  23.1 °C 60.7 °F /  15.9 °C 29.81in /  1009.4hPa West 2.0mph /  3.2km/h 5.0mph /  8km/h 64% 0.00in /  0mm
12:14 73.7 °F /  23.2 °C 59.4 °F /  15.2 °C 29.81in /  1009.4hPa WNW 2.0mph /  3.2km/h 7.0mph /  11.3km/h 61% 0.00in /  0mm
12:19 74.1 °F /  23.4 °C 61.1 °F /  16.2 °C 29.81in /  1009.4hPa North 1.0mph /  1.6km/h 3.0mph /  4.8km/h 64% 0.00in /  0mm
12:24 74.7 °F /  23.7 °C 60.8 °F /  16 °C 29.80in /  1009hPa Calm   4.0mph /  6.4km/h 62% 0.00in /  0mm
12:29 74.0 °F /  23.3 °C 59.2 °F /  15.1 °C 29.80in /  1009hPa NNW 2.0mph /  3.2km/h 5.0mph /  8km/h 60% 0.00in /  0mm
12:34 74.0 °F /  23.3 °C 60.6 °F /  15.9 °C 29.80in /  1009hPa NE 3.0mph /  4.8km/h 7.0mph /  11.3km/h 63% 0.00in /  0mm
12:39 73.4 °F /  23 °C 60.5 °F /  15.8 °C 29.80in /  1009hPa North 1.0mph /  1.6km/h 5.0mph /  8km/h 64% 0.00in /  0mm
12:44 73.9 °F /  23.3 °C 60.1 °F /  15.6 °C 29.79in /  1008.7hPa NW 3.0mph /  4.8km/h 4.0mph /  6.4km/h 62% 0.00in /  0mm
12:49 75.2 °F /  24 °C 60.4 °F /  15.8 °C 29.79in /  1008.7hPa West 3.0mph /  4.8km/h 5.0mph /  8km/h 60% 0.00in /  0mm
12:54 75.5 °F /  24.2 °C 62.0 °F /  16.7 °C 29.79in /  1008.7hPa West 2.0mph /  3.2km/h 5.0mph /  8km/h 63% 0.00in /  0mm
12:59 74.8 °F /  23.8 °C 62.2 °F /  16.8 °C 29.79in /  1008.7hPa NNW 2.0mph /  3.2km/h 4.0mph /  6.4km/h 65% 0.00in /  0mm
13:04 75.5 °F /  24.2 °C 61.1 °F /  16.2 °C 29.79in /  1008.7hPa North 2.0mph /  3.2km/h 4.0mph /  6.4km/h 61% 0.00in /  0mm
13:09 75.4 °F /  24.1 °C 61.9 °F /  16.6 °C 29.79in /  1008.7hPa ENE 4.0mph /  6.4km/h 4.0mph /  6.4km/h 63% 0.00in /  0mm
13:14 75.5 °F /  24.2 °C 60.6 °F /  15.9 °C 29.79in /  1008.7hPa ENE 3.0mph /  4.8km/h 5.0mph /  8km/h 60% 0.00in /  0mm
13:19 76.6 °F /  24.8 °C 62.1 °F /  16.7 °C 29.78in /  1008.4hPa NE 2.0mph /  3.2km/h 5.0mph /  8km/h 61% 0.00in /  0mm
13:24 76.3 °F /  24.6 °C 60.9 °F /  16.1 °C 29.78in /  1008.4hPa NE 2.0mph /  3.2km/h 5.0mph /  8km/h 59% 0.00in /  0mm
13:29 76.7 °F /  24.8 °C 61.3 °F /  16.3 °C 29.78in /  1008.4hPa NNE 2.0mph /  3.2km/h 4.0mph /  6.4km/h 59% 0.00in /  0mm
13:34 76.5 °F /  24.7 °C 61.1 °F /  16.2 °C 29.78in /  1008.4hPa NE 3.0mph /  4.8km/h 4.0mph /  6.4km/h 59% 0.00in /  0mm
13:39 76.3 °F /  24.6 °C 59.9 °F /  15.5 °C 29.78in /  1008.4hPa NE 7.0mph /  11.3km/h 8.0mph /  12.9km/h 57% 0.00in /  0mm
13:44 75.4 °F /  24.1 °C 62.4 °F /  16.9 °C 29.77in /  1008hPa NE 3.0mph /  4.8km/h 7.0mph /  11.3km/h 64% 0.00in /  0mm
13:49 75.1 °F /  23.9 °C 60.3 °F /  15.7 °C 29.77in /  1008hPa NE 3.0mph /  4.8km/h 7.0mph /  11.3km/h 60% 0.00in /  0mm
13:54 74.8 °F /  23.8 °C 60.4 °F /  15.8 °C 29.77in /  1008hPa NNE 2.0mph /  3.2km/h 7.0mph /  11.3km/h 61% 0.00in /  0mm
13:59 75.1 °F /  23.9 °C 60.3 °F /  15.7 °C 29.77in /  1008hPa NE 5.0mph /  8km/h 5.0mph /  8km/h 60% 0.00in /  0mm
14:04 76.2 °F /  24.6 °C 60.8 °F /  16 °C 29.77in /  1008hPa NE 3.0mph /  4.8km/h 8.0mph /  12.9km/h 59% 0.00in /  0mm
14:09 76.3 °F /  24.6 °C 59.9 °F /  15.5 °C 29.76in /  1007.7hPa NNW 3.0mph /  4.8km/h 4.0mph /  6.4km/h 57% 0.00in /  0mm
14:14 77.1 °F /  25.1 °C 60.2 °F /  15.7 °C 29.76in /  1007.7hPa NE 2.0mph /  3.2km/h 5.0mph /  8km/h 56% 0.00in /  0mm
14:19 76.8 °F /  24.9 °C 60.9 °F /  16.1 °C 29.76in /  1007.7hPa ENE 2.0mph /  3.2km/h 5.0mph /  8km/h 58% 0.00in /  0mm
14:24 75.8 °F /  24.3 °C 59.5 °F /  15.3 °C 29.76in /  1007.7hPa East 2.0mph /  3.2km/h 5.0mph /  8km/h 57% 0.00in /  0mm
14:29 76.3 °F /  24.6 °C 61.9 °F /  16.6 °C 29.76in /  1007.7hPa ENE 2.0mph /  3.2km/h 5.0mph /  8km/h 61% 0.00in /  0mm
14:34 76.9 °F /  24.9 °C 60.5 °F /  15.8 °C 29.76in /  1007.7hPa East 2.0mph /  3.2km/h 8.0mph /  12.9km/h 57% 0.00in /  0mm
14:39 77.4 °F /  25.2 °C 61.5 °F /  16.4 °C 29.75in /  1007.3hPa East 2.0mph /  3.2km/h 5.0mph /  8km/h 58% 0.00in /  0mm
14:44 77.4 °F /  25.2 °C 61.5 °F /  16.4 °C 29.75in /  1007.3hPa NNE 4.0mph /  6.4km/h 6.0mph /  9.7km/h 58% 0.00in /  0mm
14:49 77.4 °F /  25.2 °C 60.0 °F /  15.6 °C 29.75in /  1007.3hPa NNE 3.0mph /  4.8km/h 6.0mph /  9.7km/h 55% 0.00in /  0mm
14:54 78.0 °F /  25.6 °C 61.5 °F /  16.4 °C 29.75in /  1007.3hPa NNE 3.0mph /  4.8km/h 6.0mph /  9.7km/h 57% 0.00in /  0mm
14:59 78.0 °F /  25.6 °C 63.0 °F /  17.2 °C 29.75in /  1007.3hPa NE 3.0mph /  4.8km/h 6.0mph /  9.7km/h 60% 0.00in /  0mm
15:04 78.3 °F /  25.7 °C 61.3 °F /  16.3 °C 29.75in /  1007.3hPa North 3.0mph /  4.8km/h 6.0mph /  9.7km/h 56% 0.00in /  0mm
15:09 77.8 °F /  25.4 °C 60.3 °F /  15.7 °C 29.74in /  1007hPa Calm   5.0mph /  8km/h 55% 0.00in /  0mm
15:14 78.4 °F /  25.8 °C 60.9 °F /  16.1 °C 29.74in /  1007hPa NNE 2.0mph /  3.2km/h 6.0mph /  9.7km/h 55% 0.00in /  0mm
15:19 78.8 °F /  26 °C 63.3 °F /  17.4 °C 29.74in /  1007hPa NE 1.0mph /  1.6km/h 4.0mph /  6.4km/h 59% 0.00in /  0mm
15:24 79.0 °F /  26.1 °C 61.5 °F /  16.4 °C 29.74in /  1007hPa NE 2.0mph /  3.2km/h 9.0mph /  14.5km/h 55% 0.00in /  0mm
15:29 79.0 °F /  26.1 °C 63.0 °F /  17.2 °C 29.73in /  1006.7hPa ENE 3.0mph /  4.8km/h 9.0mph /  14.5km/h 58% 0.00in /  0mm
15:34 78.8 °F /  26 °C 61.3 °F /  16.3 °C 29.73in /  1006.7hPa ENE 3.0mph /  4.8km/h 6.0mph /  9.7km/h 55% 0.00in /  0mm
15:39 79.1 °F /  26.2 °C 61.0 °F /  16.1 °C 29.73in /  1006.7hPa ENE 3.0mph /  4.8km/h 7.0mph /  11.3km/h 54% 0.00in /  0mm
15:44 79.1 °F /  26.2 °C 60.5 °F /  15.8 °C 29.73in /  1006.7hPa ENE 1.0mph /  1.6km/h 6.0mph /  9.7km/h 53% 0.00in /  0mm
15:49 78.5 °F /  25.8 °C 62.0 °F /  16.7 °C 29.73in /  1006.7hPa ENE 1.0mph /  1.6km/h 2.0mph /  3.2km/h 57% 0.00in /  0mm
15:54 77.6 °F /  25.3 °C 60.2 °F /  15.7 °C 29.72in /  1006.3hPa ENE 3.0mph /  4.8km/h 3.0mph /  4.8km/h 55% 0.00in /  0mm
15:59 78.4 °F /  25.8 °C 62.4 °F /  16.9 °C 29.72in /  1006.3hPa ENE 3.0mph /  4.8km/h 5.0mph /  8km/h 58% 0.00in /  0mm
16:04 78.0 °F /  25.6 °C 61.5 °F /  16.4 °C 29.72in /  1006.3hPa NNW 5.0mph /  8km/h 5.0mph /  8km/h 57% 0.00in /  0mm
16:09 78.0 °F /  25.6 °C 61.5 °F /  16.4 °C 29.72in /  1006.3hPa SE 4.0mph /  6.4km/h 8.0mph /  12.9km/h 57% 0.00in /  0mm
16:14 79.2 °F /  26.2 °C 62.1 °F /  16.7 °C 29.72in /  1006.3hPa ESE 4.0mph /  6.4km/h 5.0mph /  8km/h 56% 0.00in /  0mm
16:19 79.8 °F /  26.6 °C 63.2 °F /  17.3 °C 29.72in /  1006.3hPa ESE 2.0mph /  3.2km/h 5.0mph /  8km/h 57% 0.00in /  0mm
16:24 79.9 °F /  26.6 °C 60.7 °F /  15.9 °C 29.71in /  1006hPa South 1.0mph /  1.6km/h 5.0mph /  8km/h 52% 0.00in /  0mm
16:29 79.4 °F /  26.3 °C 61.3 °F /  16.3 °C 29.71in /  1006hPa South 1.0mph /  1.6km/h 5.0mph /  8km/h 54% 0.00in /  0mm
16:34 79.6 °F /  26.4 °C 63.0 °F /  17.2 °C 29.71in /  1006hPa NE 2.0mph /  3.2km/h 7.0mph /  11.3km/h 57% 0.00in /  0mm
16:39 79.4 °F /  26.3 °C 62.3 °F /  16.8 °C 29.71in /  1006hPa NNE 3.0mph /  4.8km/h 7.0mph /  11.3km/h 56% 0.00in /  0mm
16:44 78.3 °F /  25.7 °C 62.3 °F /  16.8 °C 29.71in /  1006hPa NNE 2.0mph /  3.2km/h 6.0mph /  9.7km/h 58% 0.00in /  0mm
16:49 78.5 °F /  25.8 °C 61.5 °F /  16.4 °C 29.71in /  1006hPa NE 2.0mph /  3.2km/h 9.0mph /  14.5km/h 56% 0.00in /  0mm
16:54 78.4 °F /  25.8 °C 62.4 °F /  16.9 °C 29.71in /  1006hPa NE 3.0mph /  4.8km/h 9.0mph /  14.5km/h 58% 0.00in /  0mm
16:59 78.1 °F /  25.6 °C 62.1 °F /  16.7 °C 29.70in /  1005.6hPa NE 2.0mph /  3.2km/h 5.0mph /  8km/h 58% 0.00in /  0mm
17:04 77.7 °F /  25.4 °C 61.3 °F /  16.3 °C 29.70in /  1005.6hPa ENE 3.0mph /  4.8km/h 8.0mph /  12.9km/h 57% 0.00in /  0mm
17:09 77.7 °F /  25.4 °C 62.7 °F /  17.1 °C 29.70in /  1005.6hPa NE 2.0mph /  3.2km/h 9.0mph /  14.5km/h 60% 0.00in /  0mm
17:14 78.2 °F /  25.7 °C 63.2 °F /  17.3 °C 29.70in /  1005.6hPa NE 2.0mph /  3.2km/h 8.0mph /  12.9km/h 60% 0.00in /  0mm
17:19 77.6 °F /  25.3 °C 63.1 °F /  17.3 °C 29.70in /  1005.6hPa NE 3.0mph /  4.8km/h 5.0mph /  8km/h 61% 0.00in /  0mm
17:24 77.2 °F /  25.1 °C 62.2 °F /  16.8 °C 29.70in /  1005.6hPa NE 3.0mph /  4.8km/h 10.0mph /  16.1km/h 60% 0.00in /  0mm
17:29 77.1 °F /  25.1 °C 62.1 °F /  16.7 °C 29.70in /  1005.6hPa NE 4.0mph /  6.4km/h 10.0mph /  16.1km/h 60% 0.00in /  0mm
17:34 77.0 °F /  25 °C 62.5 °F /  16.9 °C 29.69in /  1005.3hPa NE 4.0mph /  6.4km/h 10.0mph /  16.1km/h 61% 0.00in /  0mm
17:39 76.9 °F /  24.9 °C 62.4 °F /  16.9 °C 29.70in /  1005.6hPa NE 4.0mph /  6.4km/h 8.0mph /  12.9km/h 61% 0.00in /  0mm
17:44 76.9 °F /  24.9 °C 62.4 °F /  16.9 °C 29.69in /  1005.3hPa ENE 7.0mph /  11.3km/h 9.0mph /  14.5km/h 61% 0.00in /  0mm
17:49 77.0 °F /  25 °C 62.0 °F /  16.7 °C 29.69in /  1005.3hPa NE 8.0mph /  12.9km/h 9.0mph /  14.5km/h 60% 0.00in /  0mm
17:54 77.1 °F /  25.1 °C 62.1 °F /  16.7 °C 29.69in /  1005.3hPa NE 5.0mph /  8km/h 10.0mph /  16.1km/h 60% 0.00in /  0mm
17:59 76.9 °F /  24.9 °C 62.9 °F /  17.2 °C 29.69in /  1005.3hPa NE 5.0mph /  8km/h 10.0mph /  16.1km/h 62% 0.00in /  0mm
18:04 76.7 °F /  24.8 °C 62.7 °F /  17.1 °C 29.69in /  1005.3hPa NE 4.0mph /  6.4km/h 10.0mph /  16.1km/h 62% 0.00in /  0mm
18:09 76.8 °F /  24.9 °C 62.3 °F /  16.8 °C 29.69in /  1005.3hPa NE 4.0mph /  6.4km/h 8.0mph /  12.9km/h 61% 0.00in /  0mm
18:14 76.7 °F /  24.8 °C 63.2 °F /  17.3 °C 29.70in /  1005.6hPa North 2.0mph /  3.2km/h 9.0mph /  14.5km/h 63% 0.00in /  0mm
18:19 76.1 °F /  24.5 °C 64.3 °F /  17.9 °C 29.69in /  1005.3hPa NE 2.0mph /  3.2km/h 9.0mph /  14.5km/h 67% 0.00in /  0mm
18:24 75.8 °F /  24.3 °C 63.6 °F /  17.6 °C 29.70in /  1005.6hPa NE 4.0mph /  6.4km/h 11.0mph /  17.7km/h 66% 0.00in /  0mm
18:29 75.7 °F /  24.3 °C 64.0 °F /  17.8 °C 29.70in /  1005.6hPa NE 5.0mph /  8km/h 11.0mph /  17.7km/h 67% 0.00in /  0mm
18:34 75.9 °F /  24.4 °C 64.2 °F /  17.9 °C 29.69in /  1005.3hPa NE 5.0mph /  8km/h 12.0mph /  19.3km/h 67% 0.00in /  0mm
18:39 75.7 °F /  24.3 °C 63.5 °F /  17.5 °C 29.70in /  1005.6hPa NE 6.0mph /  9.7km/h 13.0mph /  20.9km/h 66% 0.00in /  0mm
18:44 75.5 °F /  24.2 °C 63.8 °F /  17.7 °C 29.70in /  1005.6hPa NE 6.0mph /  9.7km/h 13.0mph /  20.9km/h 67% 0.00in /  0mm
18:49 75.4 °F /  24.1 °C 63.7 °F /  17.6 °C 29.69in /  1005.3hPa ENE 6.0mph /  9.7km/h 10.0mph /  16.1km/h 67% 0.00in /  0mm
18:54 75.4 °F /  24.1 °C 64.1 °F /  17.8 °C 29.69in /  1005.3hPa East 2.0mph /  3.2km/h 8.0mph /  12.9km/h 68% 0.00in /  0mm
18:59 75.3 °F /  24.1 °C 63.6 °F /  17.6 °C 29.69in /  1005.3hPa ENE 4.0mph /  6.4km/h 10.0mph /  16.1km/h 67% 0.00in /  0mm
19:04 75.1 °F /  23.9 °C 63.4 °F /  17.4 °C 29.69in /  1005.3hPa ENE 5.0mph /  8km/h 10.0mph /  16.1km/h 67% 0.00in /  0mm
19:09 75.1 °F /  23.9 °C 63.4 °F /  17.4 °C 29.69in /  1005.3hPa ENE 4.0mph /  6.4km/h 8.0mph /  12.9km/h 67% 0.00in /  0mm
19:14 75.0 °F /  23.9 °C 63.3 °F /  17.4 °C 29.69in /  1005.3hPa ENE 2.0mph /  3.2km/h 7.0mph /  11.3km/h 67% 0.00in /  0mm
19:19 75.0 °F /  23.9 °C 63.7 °F /  17.6 °C 29.70in /  1005.6hPa NE 3.0mph /  4.8km/h 7.0mph /  11.3km/h 68% 0.00in /  0mm
19:24 74.9 °F /  23.8 °C 63.6 °F /  17.6 °C 29.69in /  1005.3hPa ENE 1.0mph /  1.6km/h 8.0mph /  12.9km/h 68% 0.00in /  0mm
19:29 74.8 °F /  23.8 °C 63.5 °F /  17.5 °C 29.69in /  1005.3hPa ENE 4.0mph /  6.4km/h 8.0mph /  12.9km/h 68% 0.00in /  0mm
19:34 74.6 °F /  23.7 °C 63.3 °F /  17.4 °C 29.68in /  1005hPa NE 4.0mph /  6.4km/h 8.0mph /  12.9km/h 68% 0.00in /  0mm
19:39 74.3 °F /  23.5 °C 63.9 °F /  17.7 °C 29.69in /  1005.3hPa NE 4.0mph /  6.4km/h 8.0mph /  12.9km/h 70% 0.00in /  0mm
19:44 74.1 °F /  23.4 °C 63.7 °F /  17.6 °C 29.69in /  1005.3hPa ENE 4.0mph /  6.4km/h 6.0mph /  9.7km/h 70% 0.00in /  0mm
19:49 74.0 °F /  23.3 °C 63.6 °F /  17.6 °C 29.69in /  1005.3hPa ENE 3.0mph /  4.8km/h 5.0mph /  8km/h 70% 0.00in /  0mm
19:54 74.0 °F /  23.3 °C 63.6 °F /  17.6 °C 29.69in /  1005.3hPa East 5.0mph /  8km/h 6.0mph /  9.7km/h 70% 0.00in /  0mm
19:59 73.8 °F /  23.2 °C 63.4 °F /  17.4 °C 29.70in /  1005.6hPa East 3.0mph /  4.8km/h 9.0mph /  14.5km/h 70% 0.00in /  0mm
20:04 73.7 °F /  23.2 °C 63.7 °F /  17.6 °C 29.70in /  1005.6hPa ESE 3.0mph /  4.8km/h 9.0mph /  14.5km/h 71% 0.00in /  0mm
20:09 73.6 °F /  23.1 °C 63.2 °F /  17.3 °C 29.70in /  1005.6hPa South 3.0mph /  4.8km/h 9.0mph /  14.5km/h 70% 0.00in /  0mm
20:14 73.0 °F /  22.8 °C 62.2 °F /  16.8 °C 29.70in /  1005.6hPa SW 5.0mph /  8km/h 10.0mph /  16.1km/h 69% 0.00in /  0mm
20:19 72.4 °F /  22.4 °C 61.7 °F /  16.5 °C 29.70in /  1005.6hPa SW 5.0mph /  8km/h 11.0mph /  17.7km/h 69% 0.00in /  0mm
20:24 72.1 °F /  22.3 °C 61.4 °F /  16.3 °C 29.70in /  1005.6hPa SSW 5.0mph /  8km/h 10.0mph /  16.1km/h 69% 0.00in /  0mm
20:29 71.5 °F /  21.9 °C 61.6 °F /  16.4 °C 29.70in /  1005.6hPa SSW 5.0mph /  8km/h 10.0mph /  16.1km/h 71% 0.00in /  0mm
20:34 70.9 °F /  21.6 °C 61.4 °F /  16.3 °C 29.70in /  1005.6hPa SSW 4.0mph /  6.4km/h 8.0mph /  12.9km/h 72% 0.00in /  0mm
20:39 70.5 °F /  21.4 °C 61.4 °F /  16.3 °C 29.69in /  1005.3hPa SSW 3.0mph /  4.8km/h 7.0mph /  11.3km/h 73% 0.00in /  0mm
20:44 70.3 °F /  21.3 °C 61.2 °F /  16.2 °C 29.70in /  1005.6hPa South 4.0mph /  6.4km/h 8.0mph /  12.9km/h 73% 0.00in /  0mm
20:49 70.1 °F /  21.2 °C 61.4 °F /  16.3 °C 29.70in /  1005.6hPa South 2.0mph /  3.2km/h 7.0mph /  11.3km/h 74% 0.00in /  0mm
20:54 70.0 °F /  21.1 °C 61.7 °F /  16.5 °C 29.69in /  1005.3hPa South 3.0mph /  4.8km/h 5.0mph /  8km/h 75% 0.00in /  0mm
20:59 69.8 °F /  21 °C 61.5 °F /  16.4 °C 29.69in /  1005.3hPa South 2.0mph /  3.2km/h 6.0mph /  9.7km/h 75% 0.00in /  0mm
21:04 69.8 °F /  21 °C 61.5 °F /  16.4 °C 29.70in /  1005.6hPa SSE 2.0mph /  3.2km/h 6.0mph /  9.7km/h 75% 0.00in /  0mm
21:09 69.8 °F /  21 °C 61.9 °F /  16.6 °C 29.70in /  1005.6hPa SSE 2.0mph /  3.2km/h 8.0mph /  12.9km/h 76% 0.00in /  0mm
21:14 69.6 °F /  20.9 °C 61.3 °F /  16.3 °C 29.70in /  1005.6hPa SSW 3.0mph /  4.8km/h 7.0mph /  11.3km/h 75% 0.00in /  0mm
21:19 69.4 °F /  20.8 °C 61.5 °F /  16.4 °C 29.70in /  1005.6hPa South 2.0mph /  3.2km/h 5.0mph /  8km/h 76% 0.00in /  0mm
21:24 69.3 °F /  20.7 °C 61.8 °F /  16.6 °C 29.70in /  1005.6hPa South 1.0mph /  1.6km/h 5.0mph /  8km/h 77% 0.00in /  0mm
21:29 69.2 °F /  20.7 °C 61.7 °F /  16.5 °C 29.70in /  1005.6hPa South 2.0mph /  3.2km/h 6.0mph /  9.7km/h 77% 0.00in /  0mm
21:34 69.1 °F /  20.6 °C 61.6 °F /  16.4 °C 29.70in /  1005.6hPa South 2.0mph /  3.2km/h 6.0mph /  9.7km/h 77% 0.00in /  0mm
21:39 68.9 °F /  20.5 °C 61.4 °F /  16.3 °C 29.70in /  1005.6hPa SSE 1.0mph /  1.6km/h 5.0mph /  8km/h 77% 0.00in /  0mm
21:44 68.7 °F /  20.4 °C 61.2 °F /  16.2 °C 29.70in /  1005.6hPa SSE 1.0mph /  1.6km/h 4.0mph /  6.4km/h 77% 0.00in /  0mm
21:49 68.6 °F /  20.3 °C 61.5 °F /  16.4 °C 29.70in /  1005.6hPa SSE 3.0mph /  4.8km/h 4.0mph /  6.4km/h 78% 0.00in /  0mm
21:54 68.6 °F /  20.3 °C 61.5 °F /  16.4 °C 29.70in /  1005.6hPa SSE 2.0mph /  3.2km/h 5.0mph /  8km/h 78% 0.00in /  0mm
21:59 68.4 °F /  20.2 °C 61.3 °F /  16.3 °C 29.70in /  1005.6hPa South 2.0mph /  3.2km/h 8.0mph /  12.9km/h 78% 0.00in /  0mm
22:04 68.3 °F /  20.2 °C 60.8 °F /  16 °C 29.71in /  1006hPa South 3.0mph /  4.8km/h 8.0mph /  12.9km/h 77% 0.00in /  0mm
22:09 68.1 °F /  20.1 °C 60.6 °F /  15.9 °C 29.71in /  1006hPa South 3.0mph /  4.8km/h 7.0mph /  11.3km/h 77% 0.00in /  0mm
22:14 68.1 °F /  20.1 °C 60.2 °F /  15.7 °C 29.71in /  1006hPa South 4.0mph /  6.4km/h 12.0mph /  19.3km/h 76% 0.00in /  0mm
22:19 67.9 °F /  19.9 °C 60.1 °F /  15.6 °C 29.72in /  1006.3hPa South 3.0mph /  4.8km/h 12.0mph /  19.3km/h 76% 0.00in /  0mm
22:24 67.8 °F /  19.9 °C 60.3 °F /  15.7 °C 29.72in /  1006.3hPa South 3.0mph /  4.8km/h 8.0mph /  12.9km/h 77% 0.00in /  0mm
22:29 67.7 °F /  19.8 °C 60.2 °F /  15.7 °C 29.72in /  1006.3hPa South 3.0mph /  4.8km/h 8.0mph /  12.9km/h 77% 0.00in /  0mm
22:34 67.6 °F /  19.8 °C 60.1 °F /  15.6 °C 29.72in /  1006.3hPa SSW 4.0mph /  6.4km/h 7.0mph /  11.3km/h 77% 0.00in /  0mm
22:44 67.4 °F /  19.7 °C 60.3 °F /  15.7 °C 29.72in /  1006.3hPa SE 3.0mph /  4.8km/h 7.0mph /  11.3km/h 78% 0.00in /  0mm
22:49 67.4 °F /  19.7 °C 60.3 °F /  15.7 °C 29.72in /  1006.3hPa SSW 2.0mph /  3.2km/h 8.0mph /  12.9km/h 78% 0.00in /  0mm
22:54 67.3 °F /  19.6 °C 60.2 °F /  15.7 °C 29.72in /  1006.3hPa SSE 3.0mph /  4.8km/h 6.0mph /  9.7km/h 78% 0.00in /  0mm
22:59 67.4 °F /  19.7 °C 59.9 °F /  15.5 °C 29.72in /  1006.3hPa SSW 3.0mph /  4.8km/h 6.0mph /  9.7km/h 77% 0.00in /  0mm
23:04 67.6 °F /  19.8 °C 60.1 °F /  15.6 °C 29.71in /  1006hPa SSW 3.0mph /  4.8km/h 6.0mph /  9.7km/h 77% 0.00in /  0mm
23:09 67.5 °F /  19.7 °C 60.0 °F /  15.6 °C 29.71in /  1006hPa South 2.0mph /  3.2km/h 6.0mph /  9.7km/h 77% 0.00in /  0mm
23:14 67.4 °F /  19.7 °C 59.9 °F /  15.5 °C 29.71in /  1006hPa SSW 3.0mph /  4.8km/h 8.0mph /  12.9km/h 77% 0.00in /  0mm
23:19 67.4 °F /  19.7 °C 59.6 °F /  15.3 °C 29.71in /  1006hPa SSW 4.0mph /  6.4km/h 8.0mph /  12.9km/h 76% 0.00in /  0mm
23:24 67.3 °F /  19.6 °C 59.8 °F /  15.4 °C 29.70in /  1005.6hPa SSW 4.0mph /  6.4km/h 9.0mph /  14.5km/h 77% 0.00in /  0mm
23:29 67.2 °F /  19.6 °C 59.4 °F /  15.2 °C 29.70in /  1005.6hPa SSE 5.0mph /  8km/h 8.0mph /  12.9km/h 76% 0.00in /  0mm
23:34 67.1 °F /  19.5 °C 59.6 °F /  15.3 °C 29.70in /  1005.6hPa South 3.0mph /  4.8km/h 8.0mph /  12.9km/h 77% 0.00in /  0mm
23:39 66.8 °F /  19.3 °C 59.7 °F /  15.4 °C 29.69in /  1005.3hPa Calm   8.0mph /  12.9km/h 78% 0.00in /  0mm
23:44 66.8 °F /  19.3 °C 59.7 °F /  15.4 °C 29.68in /  1005hPa SW 2.0mph /  3.2km/h 6.0mph /  9.7km/h 78% 0.00in /  0mm
23:49 66.7 °F /  19.3 °C 59.6 °F /  15.3 °C 29.69in /  1005.3hPa SSW 1.0mph /  1.6km/h 7.0mph /  11.3km/h 78% 0.00in /  0mm
23:54 66.6 °F /  19.2 °C 59.5 °F /  15.3 °C 29.69in /  1005.3hPa Calm   6.0mph /  9.7km/h 78% 0.00in /  0mm
23:59 66.4 °F /  19.1 °C 59.3 °F /  15.2 °C 29.69in /  1005.3hPa SSW 1.0mph /  1.6km/h 4.0mph /  6.4km/h 78% 0.00in /  0mm
Buffalo, New York, USA
Compliments of Weather Underground - 2.5 mb